sensor_id;sensor_type;location;lat;lon;timestamp;pressure;altitude;pressure_sealevel;temperature;humidity
21594;BME280;10959;51.328;7.322;2023-12-20T00:02:17;98761.59;;;8.01;80.84
21594;BME280;10959;51.328;7.322;2023-12-20T00:04:43;98760.19;;;7.98;81.23
21594;BME280;10959;51.328;7.322;2023-12-20T00:07:10;98755.63;;;7.99;81.21
21594;BME280;10959;51.328;7.322;2023-12-20T00:09:37;98756.19;;;8.01;81.44
21594;BME280;10959;51.328;7.322;2023-12-20T00:12:04;98766.28;;;7.94;81.15
21594;BME280;10959;51.328;7.322;2023-12-20T00:14:31;98766.06;;;7.84;81.09
21594;BME280;10959;51.328;7.322;2023-12-20T00:16:59;98768.66;;;7.79;80.99
21594;BME280;10959;51.328;7.322;2023-12-20T00:19:25;98765.72;;;7.80;81.42
21594;BME280;10959;51.328;7.322;2023-12-20T00:21:52;98760.47;;;7.73;81.38
21594;BME280;10959;51.328;7.322;2023-12-20T00:24:18;98768.41;;;7.68;81.06
21594;BME280;10959;51.328;7.322;2023-12-20T00:26:46;98768.31;;;7.63;81.21
21594;BME280;10959;51.328;7.322;2023-12-20T00:29:13;98768.31;;;7.63;81.30
21594;BME280;10959;51.328;7.322;2023-12-20T00:31:40;98774.25;;;7.65;81.06
21594;BME280;10959;51.328;7.322;2023-12-20T00:34:09;98763.84;;;7.69;80.76
21594;BME280;10959;51.328;7.322;2023-12-20T00:36:36;98771.25;;;7.73;80.81
21594;BME280;10959;51.328;7.322;2023-12-20T00:39:04;98773.31;;;7.71;80.51
21594;BME280;10959;51.328;7.322;2023-12-20T00:41:33;98777.09;;;7.70;80.49
21594;BME280;10959;51.328;7.322;2023-12-20T00:43:59;98783.41;;;7.64;80.66
21594;BME280;10959;51.328;7.322;2023-12-20T00:46:26;98786.56;;;7.61;80.45
21594;BME280;10959;51.328;7.322;2023-12-20T00:48:53;98782.81;;;7.51;80.77
21594;BME280;10959;51.328;7.322;2023-12-20T00:51:21;98782.44;;;7.47;80.66
21594;BME280;10959;51.328;7.322;2023-12-20T00:53:49;98785.75;;;7.49;80.75
21594;BME280;10959;51.328;7.322;2023-12-20T00:56:20;98800.34;;;7.42;80.78
21594;BME280;10959;51.328;7.322;2023-12-20T00:58:48;98801.63;;;7.39;80.60
21594;BME280;10959;51.328;7.322;2023-12-20T01:01:15;98792.97;;;7.37;80.67
21594;BME280;10959;51.328;7.322;2023-12-20T01:03:43;98802.44;;;7.40;80.54
21594;BME280;10959;51.328;7.322;2023-12-20T01:06:11;98816.56;;;7.35;80.03
21594;BME280;10959;51.328;7.322;2023-12-20T01:08:39;98813.78;;;7.30;80.41
21594;BME280;10959;51.328;7.322;2023-12-20T01:11:05;98811.09;;;7.30;80.13
21594;BME280;10959;51.328;7.322;2023-12-20T01:13:32;98805.22;;;7.22;80.35
21594;BME280;10959;51.328;7.322;2023-12-20T01:15:59;98815.63;;;7.18;80.00
21594;BME280;10959;51.328;7.322;2023-12-20T01:18:26;98818.19;;;7.13;79.79
21594;BME280;10959;51.328;7.322;2023-12-20T01:20:53;98806.34;;;7.02;80.05
21594;BME280;10959;51.328;7.322;2023-12-20T01:23:20;98804.50;;;7.14;79.75
21594;BME280;10959;51.328;7.322;2023-12-20T01:25:48;98795.84;;;7.12;79.73
21594;BME280;10959;51.328;7.322;2023-12-20T01:28:15;98802.53;;;7.22;79.41
21594;BME280;10959;51.328;7.322;2023-12-20T01:30:43;98810.34;;;7.23;79.17
21594;BME280;10959;51.328;7.322;2023-12-20T01:33:10;98811.88;;;7.19;79.10
21594;BME280;10959;51.328;7.322;2023-12-20T01:35:37;98803.94;;;7.24;79.02
21594;BME280;10959;51.328;7.322;2023-12-20T01:38:04;98798.47;;;7.31;79.18
21594;BME280;10959;51.328;7.322;2023-12-20T01:40:33;98810.50;;;7.28;78.36
21594;BME280;10959;51.328;7.322;2023-12-20T01:43:02;98814.34;;;7.21;78.70
21594;BME280;10959;51.328;7.322;2023-12-20T01:45:29;98808.59;;;7.17;78.81
21594;BME280;10959;51.328;7.322;2023-12-20T01:47:57;98818.53;;;7.16;78.60
21594;BME280;10959;51.328;7.322;2023-12-20T01:50:27;98818.94;;;7.02;78.42
21594;BME280;10959;51.328;7.322;2023-12-20T01:52:55;98829.13;;;7.00;78.76
21594;BME280;10959;51.328;7.322;2023-12-20T01:55:23;98819.66;;;6.97;78.31
21594;BME280;10959;51.328;7.322;2023-12-20T01:57:54;98821.09;;;6.82;78.64
21594;BME280;10959;51.328;7.322;2023-12-20T02:00:22;98833.97;;;6.80;78.61
21594;BME280;10959;51.328;7.322;2023-12-20T02:02:53;98825.28;;;6.78;79.32
21594;BME280;10959;51.328;7.322;2023-12-20T02:05:21;98823.66;;;6.77;79.49
21594;BME280;10959;51.328;7.322;2023-12-20T02:07:49;98826.84;;;6.85;79.45
21594;BME280;10959;51.328;7.322;2023-12-20T02:10:15;98827.34;;;6.94;79.32
21594;BME280;10959;51.328;7.322;2023-12-20T02:12:42;98829.69;;;7.02;79.28
21594;BME280;10959;51.328;7.322;2023-12-20T02:15:09;98823.66;;;7.06;78.83
21594;BME280;10959;51.328;7.322;2023-12-20T02:17:38;98826.09;;;7.08;78.68
21594;BME280;10959;51.328;7.322;2023-12-20T02:20:06;98827.97;;;7.07;78.72
21594;BME280;10959;51.328;7.322;2023-12-20T02:22:36;98821.53;;;7.08;78.68
21594;BME280;10959;51.328;7.322;2023-12-20T02:25:03;98813.25;;;7.10;78.62
21594;BME280;10959;51.328;7.322;2023-12-20T02:27:31;98827.16;;;7.07;78.55
21594;BME280;10959;51.328;7.322;2023-12-20T02:29:59;98826.31;;;6.95;78.59
21594;BME280;10959;51.328;7.322;2023-12-20T02:32:27;98824.75;;;6.87;78.66
21594;BME280;10959;51.328;7.322;2023-12-20T02:34:55;98829.03;;;6.77;78.61
21594;BME280;10959;51.328;7.322;2023-12-20T02:37:22;98831.28;;;6.80;78.25
21594;BME280;10959;51.328;7.322;2023-12-20T02:39:49;98830.66;;;6.78;78.57
21594;BME280;10959;51.328;7.322;2023-12-20T02:42:16;98833.13;;;6.79;78.34
21594;BME280;10959;51.328;7.322;2023-12-20T02:44:43;98830.38;;;6.86;78.38
21594;BME280;10959;51.328;7.322;2023-12-20T02:47:09;98827.69;;;6.86;77.87
21594;BME280;10959;51.328;7.322;2023-12-20T02:49:37;98825.91;;;6.80;77.44
21594;BME280;10959;51.328;7.322;2023-12-20T02:52:05;98835.78;;;6.68;77.74
21594;BME280;10959;51.328;7.322;2023-12-20T02:54:32;98833.97;;;6.80;78.03
21594;BME280;10959;51.328;7.322;2023-12-20T02:57:01;98837.59;;;6.85;78.06
21594;BME280;10959;51.328;7.322;2023-12-20T02:59:28;98836.03;;;6.78;77.62
21594;BME280;10959;51.328;7.322;2023-12-20T03:01:55;98826.47;;;6.82;77.65
21594;BME280;10959;51.328;7.322;2023-12-20T03:04:22;98820.59;;;6.73;77.57
21594;BME280;10959;51.328;7.322;2023-12-20T03:06:49;98830.47;;;6.61;77.90
21594;BME280;10959;51.328;7.322;2023-12-20T03:09:16;98833.84;;;6.56;78.21
21594;BME280;10959;51.328;7.322;2023-12-20T03:11:43;98829.53;;;6.55;78.13
21594;BME280;10959;51.328;7.322;2023-12-20T03:14:11;98820.41;;;6.56;78.47
21594;BME280;10959;51.328;7.322;2023-12-20T03:16:38;98829.78;;;6.66;78.36
21594;BME280;10959;51.328;7.322;2023-12-20T03:19:04;98839.25;;;6.68;78.15
21594;BME280;10959;51.328;7.322;2023-12-20T03:21:31;98809.34;;;6.65;78.42
21594;BME280;10959;51.328;7.322;2023-12-20T03:23:58;98825.03;;;6.68;78.48
21594;BME280;10959;51.328;7.322;2023-12-20T03:26:25;98820.81;;;6.72;77.99
21594;BME280;10959;51.328;7.322;2023-12-20T03:28:51;98817.63;;;6.63;77.99
21594;BME280;10959;51.328;7.322;2023-12-20T03:31:20;98821.47;;;6.55;77.98
21594;BME280;10959;51.328;7.322;2023-12-20T03:33:48;98815.72;;;6.52;78.32
21594;BME280;10959;51.328;7.322;2023-12-20T03:36:16;98819.81;;;6.54;78.27
21594;BME280;10959;51.328;7.322;2023-12-20T03:38:43;98823.53;;;6.53;78.24
21594;BME280;10959;51.328;7.322;2023-12-20T03:41:13;98828.19;;;6.46;78.05
21594;BME280;10959;51.328;7.322;2023-12-20T03:43:39;98817.72;;;6.38;78.15
21594;BME280;10959;51.328;7.322;2023-12-20T03:46:07;98824.63;;;6.34;78.32
21594;BME280;10959;51.328;7.322;2023-12-20T03:48:42;98821.38;;;6.26;78.32
21594;BME280;10959;51.328;7.322;2023-12-20T03:51:10;98819.97;;;6.41;78.44
21594;BME280;10959;51.328;7.322;2023-12-20T03:53:37;98827.81;;;6.43;78.41
21594;BME280;10959;51.328;7.322;2023-12-20T03:56:06;98822.06;;;6.39;78.13
21594;BME280;10959;51.328;7.322;2023-12-20T03:58:32;98824.38;;;6.36;78.09
21594;BME280;10959;51.328;7.322;2023-12-20T04:00:59;98830.56;;;6.36;78.15
21594;BME280;10959;51.328;7.322;2023-12-20T04:03:28;98824.00;;;6.32;78.31
21594;BME280;10959;51.328;7.322;2023-12-20T04:05:55;98824.63;;;6.34;78.55
21594;BME280;10959;51.328;7.322;2023-12-20T04:08:23;98822.06;;;6.39;78.29
21594;BME280;10959;51.328;7.322;2023-12-20T04:10:51;98828.03;;;6.41;78.24
21594;BME280;10959;51.328;7.322;2023-12-20T04:13:17;98823.09;;;6.38;78.12
21594;BME280;10959;51.328;7.322;2023-12-20T04:15:51;98820.88;;;6.35;78.06
21594;BME280;10959;51.328;7.322;2023-12-20T04:18:21;98818.25;;;6.47;78.04
21594;BME280;10959;51.328;7.322;2023-12-20T04:20:48;98813.03;;;6.52;78.12
21594;BME280;10959;51.328;7.322;2023-12-20T04:23:16;98816.53;;;6.52;78.07
21594;BME280;10959;51.328;7.322;2023-12-20T04:25:42;98824.06;;;6.44;78.01
21594;BME280;10959;51.328;7.322;2023-12-20T04:28:15;98824.88;;;6.44;78.10
21594;BME280;10959;51.328;7.322;2023-12-20T04:30:42;98821.75;;;6.47;78.36
21594;BME280;10959;51.328;7.322;2023-12-20T04:33:09;98834.47;;;6.40;78.68
21594;BME280;10959;51.328;7.322;2023-12-20T04:35:35;98819.38;;;6.21;78.80
21594;BME280;10959;51.328;7.322;2023-12-20T04:38:02;98824.06;;;6.26;78.96
21594;BME280;10959;51.328;7.322;2023-12-20T04:40:30;98825.50;;;6.28;78.89
21594;BME280;10959;51.328;7.322;2023-12-20T04:42:57;98817.59;;;6.33;78.99
21594;BME280;10959;51.328;7.322;2023-12-20T04:45:24;98825.34;;;6.41;78.84
21594;BME280;10959;51.328;7.322;2023-12-20T04:47:51;98814.47;;;6.36;78.72
21594;BME280;10959;51.328;7.322;2023-12-20T04:50:20;98812.97;;;6.40;78.79
21594;BME280;10959;51.328;7.322;2023-12-20T04:52:47;98824.16;;;6.37;78.66
21594;BME280;10959;51.328;7.322;2023-12-20T04:55:13;98816.84;;;6.26;78.43
21594;BME280;10959;51.328;7.322;2023-12-20T04:57:45;98826.75;;;6.26;78.69
21594;BME280;10959;51.328;7.322;2023-12-20T05:00:12;98831.22;;;6.32;78.87
21594;BME280;10959;51.328;7.322;2023-12-20T05:02:41;98825.50;;;6.28;78.58
21594;BME280;10959;51.328;7.322;2023-12-20T05:05:09;98828.66;;;6.25;78.92
21594;BME280;10959;51.328;7.322;2023-12-20T05:07:42;98828.09;;;6.17;78.81
21594;BME280;10959;51.328;7.322;2023-12-20T05:10:09;98824.81;;;6.15;79.15
21594;BME280;10959;51.328;7.322;2023-12-20T05:12:37;98833.72;;;6.15;79.21
21594;BME280;10959;51.328;7.322;2023-12-20T05:15:07;98839.66;;;6.17;79.05
21594;BME280;10959;51.328;7.322;2023-12-20T05:17:34;98831.78;;;6.22;79.08
21594;BME280;10959;51.328;7.322;2023-12-20T05:20:01;98839.97;;;6.27;78.96
21594;BME280;10959;51.328;7.322;2023-12-20T05:22:28;98835.44;;;6.28;78.85
21594;BME280;10959;51.328;7.322;2023-12-20T05:24:55;98851.75;;;6.26;78.94
21594;BME280;10959;51.328;7.322;2023-12-20T05:27:25;98845.94;;;6.29;78.24
21594;BME280;10959;51.328;7.322;2023-12-20T05:29:54;98839.38;;;6.25;78.57
21594;BME280;10959;51.328;7.322;2023-12-20T05:32:24;98828.78;;;6.30;78.63
21594;BME280;10959;51.328;7.322;2023-12-20T05:34:50;98848.16;;;6.32;78.61
21594;BME280;10959;51.328;7.322;2023-12-20T05:37:17;98846.53;;;6.31;78.48
21594;BME280;10959;51.328;7.322;2023-12-20T05:39:48;98838.19;;;6.21;78.31
21594;BME280;10959;51.328;7.322;2023-12-20T05:42:15;98840.34;;;6.31;78.52
21594;BME280;10959;51.328;7.322;2023-12-20T05:44:42;98839.28;;;6.32;78.44
21594;BME280;10959;51.328;7.322;2023-12-20T05:47:08;98846.09;;;6.34;78.35
21594;BME280;10959;51.328;7.322;2023-12-20T05:49:36;98836.16;;;6.35;78.77
21594;BME280;10959;51.328;7.322;2023-12-20T05:52:05;98828.63;;;6.43;78.24
21594;BME280;10959;51.328;7.322;2023-12-20T05:54:31;98827.00;;;6.42;77.92
21594;BME280;10959;51.328;7.322;2023-12-20T05:56:59;98838.03;;;6.34;78.14
21594;BME280;10959;51.328;7.322;2023-12-20T05:59:26;98824.63;;;6.34;78.58
21594;BME280;10959;51.328;7.322;2023-12-20T06:01:53;98820.88;;;6.35;78.29
21594;BME280;10959;51.328;7.322;2023-12-20T06:04:20;98832.94;;;6.26;78.46
21594;BME280;10959;51.328;7.322;2023-12-20T06:06:48;98838.03;;;6.34;78.33
21594;BME280;10959;51.328;7.322;2023-12-20T06:09:14;98840.56;;;6.29;78.64
21594;BME280;10959;51.328;7.322;2023-12-20T06:11:43;98827.44;;;6.21;78.70
21594;BME280;10959;51.328;7.322;2023-12-20T06:14:11;98819.53;;;6.26;78.61
21594;BME280;10959;51.328;7.322;2023-12-20T06:16:37;98809.59;;;6.27;78.64
21594;BME280;10959;51.328;7.322;2023-12-20T06:19:05;98819.44;;;6.33;78.64
21594;BME280;10959;51.328;7.322;2023-12-20T06:21:32;98828.03;;;6.41;78.53
21594;BME280;10959;51.328;7.322;2023-12-20T06:24:00;98821.75;;;6.47;78.60
21594;BME280;10959;51.328;7.322;2023-12-20T06:26:26;98822.44;;;6.43;78.22
21594;BME280;10959;51.328;7.322;2023-12-20T06:28:53;98830.72;;;6.41;78.36
21594;BME280;10959;51.328;7.322;2023-12-20T06:31:20;98833.63;;;6.40;78.38
21594;BME280;10959;51.328;7.322;2023-12-20T06:33:47;98827.44;;;6.39;78.17
21594;BME280;10959;51.328;7.322;2023-12-20T06:36:24;98816.09;;;6.37;78.10
21594;BME280;10959;51.328;7.322;2023-12-20T06:38:51;98825.25;;;6.48;78.12
21594;BME280;10959;51.328;7.322;2023-12-20T06:41:19;98811.84;;;6.48;78.05
21594;BME280;10959;51.328;7.322;2023-12-20T06:43:46;98815.34;;;6.48;78.02
21594;BME280;10959;51.328;7.322;2023-12-20T06:46:13;98805.78;;;6.52;78.27
21594;BME280;10959;51.328;7.322;2023-12-20T06:48:39;98817.56;;;6.51;77.87
21594;BME280;10959;51.328;7.322;2023-12-20T06:51:14;98824.31;;;6.42;78.01
21594;BME280;10959;51.328;7.322;2023-12-20T06:53:44;98835.63;;;6.44;78.03
21594;BME280;10959;51.328;7.322;2023-12-20T06:56:11;98823.28;;;6.43;78.11
21594;BME280;10959;51.328;7.322;2023-12-20T06:58:39;98836.09;;;6.41;78.24
21594;BME280;10959;51.328;7.322;2023-12-20T07:01:11;98828.03;;;6.41;78.12
21594;BME280;10959;51.328;7.322;2023-12-20T07:03:37;98823.72;;;6.40;78.20
21594;BME280;10959;51.328;7.322;2023-12-20T07:06:10;98829.88;;;6.41;78.17
21594;BME280;10959;51.328;7.322;2023-12-20T07:08:39;98832.44;;;6.36;78.44
21594;BME280;10959;51.328;7.322;2023-12-20T07:11:06;98835.94;;;6.36;78.42
21594;BME280;10959;51.328;7.322;2023-12-20T07:13:40;98819.97;;;6.23;78.15
21594;BME280;10959;51.328;7.322;2023-12-20T07:16:07;98822.53;;;6.18;77.98
21594;BME280;10959;51.328;7.322;2023-12-20T07:18:33;98837.16;;;6.22;78.43
21594;BME280;10959;51.328;7.322;2023-12-20T07:21:01;98829.69;;;6.24;78.20
21594;BME280;10959;51.328;7.322;2023-12-20T07:23:39;98818.56;;;6.21;78.22
21594;BME280;10959;51.328;7.322;2023-12-20T07:26:09;98825.50;;;6.28;77.72
21594;BME280;10959;51.328;7.322;2023-12-20T07:28:36;98825.50;;;6.28;77.93
21594;BME280;10959;51.328;7.322;2023-12-20T07:31:04;98825.41;;;6.35;77.44
21594;BME280;10959;51.328;7.322;2023-12-20T07:33:31;98819.91;;;6.30;77.52
21594;BME280;10959;51.328;7.322;2023-12-20T07:35:59;98831.16;;;6.38;77.46
21594;BME280;10959;51.328;7.322;2023-12-20T07:38:26;98832.13;;;6.44;77.51
21594;BME280;10959;51.328;7.322;2023-12-20T07:40:52;98836.47;;;6.45;77.50
21594;BME280;10959;51.328;7.322;2023-12-20T07:43:19;98837.72;;;6.42;77.27
21594;BME280;10959;51.328;7.322;2023-12-20T07:45:46;98835.78;;;6.49;77.69
21594;BME280;10959;51.328;7.322;2023-12-20T07:48:14;98844.31;;;6.46;77.27
21594;BME280;10959;51.328;7.322;2023-12-20T07:50:41;98842.53;;;6.40;77.11
21594;BME280;10959;51.328;7.322;2023-12-20T07:53:08;98848.78;;;6.34;77.22
21594;BME280;10959;51.328;7.322;2023-12-20T07:55:34;98838.03;;;6.34;77.43
21594;BME280;10959;51.328;7.322;2023-12-20T07:58:01;98835.34;;;6.34;76.99
21594;BME280;10959;51.328;7.322;2023-12-20T08:00:28;98832.88;;;6.33;77.20
21594;BME280;10959;51.328;7.322;2023-12-20T08:02:54;98830.44;;;6.31;77.22
21594;BME280;10959;51.328;7.322;2023-12-20T08:05:22;98837.88;;;6.29;77.37
21594;BME280;10959;51.328;7.322;2023-12-20T08:07:49;98831.59;;;6.35;77.48
21594;BME280;10959;51.328;7.322;2023-12-20T08:10:16;98831.78;;;6.40;77.30
21594;BME280;10959;51.328;7.322;2023-12-20T08:12:44;98832.56;;;6.41;77.08
21594;BME280;10959;51.328;7.322;2023-12-20T08:15:11;98824.88;;;6.44;77.16
21594;BME280;10959;51.328;7.322;2023-12-20T08:17:38;98822.44;;;6.43;76.96
21594;BME280;10959;51.328;7.322;2023-12-20T08:20:05;98828.63;;;6.43;77.06
21594;BME280;10959;51.328;7.322;2023-12-20T08:22:34;98828.72;;;6.37;77.38
21594;BME280;10959;51.328;7.322;2023-12-20T08:25:00;98831.59;;;6.35;77.31
21594;BME280;10959;51.328;7.322;2023-12-20T08:27:27;98827.50;;;6.33;77.38
21594;BME280;10959;51.328;7.322;2023-12-20T08:29:54;98833.19;;;6.43;77.47
21594;BME280;10959;51.328;7.322;2023-12-20T08:32:21;98831.22;;;6.50;77.59
21594;BME280;10959;51.328;7.322;2023-12-20T08:34:47;98830.19;;;6.51;77.27
21594;BME280;10959;51.328;7.322;2023-12-20T08:37:15;98826.53;;;6.45;77.43
21594;BME280;10959;51.328;7.322;2023-12-20T08:39:43;98839.19;;;6.56;77.15
21594;BME280;10959;51.328;7.322;2023-12-20T08:42:09;98828.00;;;6.59;77.24
21594;BME280;10959;51.328;7.322;2023-12-20T08:44:36;98842.63;;;6.63;77.44
21594;BME280;10959;51.328;7.322;2023-12-20T08:47:03;98835.03;;;6.60;77.03
21594;BME280;10959;51.328;7.322;2023-12-20T08:49:30;98835.47;;;6.57;76.75
21594;BME280;10959;51.328;7.322;2023-12-20T08:51:56;98832.22;;;6.55;76.93
21594;BME280;10959;51.328;7.322;2023-12-20T08:54:24;98848.09;;;6.57;77.00
21594;BME280;10959;51.328;7.322;2023-12-20T08:56:53;98846.22;;;6.57;76.92
21594;BME280;10959;51.328;7.322;2023-12-20T08:59:19;98834.91;;;6.55;77.10
21594;BME280;10959;51.328;7.322;2023-12-20T09:01:46;98824.16;;;6.55;77.31
21594;BME280;10959;51.328;7.322;2023-12-20T09:04:13;98820.78;;;6.60;77.54
21594;BME280;10959;51.328;7.322;2023-12-20T09:06:40;98831.31;;;6.61;76.99
21594;BME280;10959;51.328;7.322;2023-12-20T09:09:06;98828.63;;;6.61;76.95
21594;BME280;10959;51.328;7.322;2023-12-20T09:11:35;98840.03;;;6.57;76.99
21594;BME280;10959;51.328;7.322;2023-12-20T09:14:03;98839.66;;;6.53;77.11
21594;BME280;10959;51.328;7.322;2023-12-20T09:16:30;98843.47;;;6.46;77.15
21594;BME280;10959;51.328;7.322;2023-12-20T09:18:56;98834.00;;;6.43;77.15
21594;BME280;10959;51.328;7.322;2023-12-20T09:21:23;98838.38;;;6.38;77.52
21594;BME280;10959;51.328;7.322;2023-12-20T09:23:50;98825.78;;;6.38;77.25
21594;BME280;10959;51.328;7.322;2023-12-20T09:26:16;98827.75;;;6.49;77.54
21594;BME280;10959;51.328;7.322;2023-12-20T09:28:43;98823.25;;;6.61;77.28
21594;BME280;10959;51.328;7.322;2023-12-20T09:31:11;98812.63;;;6.67;76.12
21594;BME280;10959;51.328;7.322;2023-12-20T09:33:38;98805.22;;;6.62;76.69
21594;BME280;10959;51.328;7.322;2023-12-20T09:36:05;98812.63;;;6.67;76.90
21594;BME280;10959;51.328;7.322;2023-12-20T09:38:32;98815.31;;;6.67;76.59
21594;BME280;10959;51.328;7.322;2023-12-20T09:40:59;98814.72;;;6.65;76.66
21594;BME280;10959;51.328;7.322;2023-12-20T09:43:26;98820.25;;;6.70;76.53
21594;BME280;10959;51.328;7.322;2023-12-20T09:45:59;98809.94;;;6.67;76.70
21594;BME280;10959;51.328;7.322;2023-12-20T09:48:29;98811.19;;;6.82;76.63
21594;BME280;10959;51.328;7.322;2023-12-20T09:50:56;98813.03;;;6.82;76.41
21594;BME280;10959;51.328;7.322;2023-12-20T09:53:24;98800.44;;;6.82;76.48
21594;BME280;10959;51.328;7.322;2023-12-20T09:55:55;98814.81;;;6.88;76.66
21594;BME280;10959;51.328;7.322;2023-12-20T09:58:23;98807.09;;;6.80;75.90
21594;BME280;10959;51.328;7.322;2023-12-20T10:00:53;98810.94;;;6.84;76.21
21594;BME280;10959;51.328;7.322;2023-12-20T10:03:24;98811.63;;;6.79;76.32
21594;BME280;10959;51.328;7.322;2023-12-20T10:05:56;98809.16;;;6.78;76.28
21594;BME280;10959;51.328;7.322;2023-12-20T10:08:24;98807.44;;;6.83;76.43
21594;BME280;10959;51.328;7.322;2023-12-20T10:10:52;98807.22;;;6.85;76.36
21594;BME280;10959;51.328;7.322;2023-12-20T10:13:18;98811.09;;;6.89;76.55
21594;BME280;10959;51.328;7.322;2023-12-20T10:15:45;98798.69;;;6.88;76.56
21594;BME280;10959;51.328;7.322;2023-12-20T10:18:15;98811.09;;;6.89;76.03
21594;BME280;10959;51.328;7.322;2023-12-20T10:20:41;98806.19;;;6.86;76.09
21594;BME280;10959;51.328;7.322;2023-12-20T10:23:11;98801.94;;;6.78;75.86
21594;BME280;10959;51.328;7.322;2023-12-20T10:25:39;98796.19;;;6.75;76.29
21594;BME280;10959;51.328;7.322;2023-12-20T10:28:12;98794.56;;;6.74;76.57
21594;BME280;10959;51.328;7.322;2023-12-20T10:30:41;98781.00;;;6.80;76.48
21594;BME280;10959;51.328;7.322;2023-12-20T10:33:09;98788.03;;;6.81;76.37
21594;BME280;10959;51.328;7.322;2023-12-20T10:35:36;98785.47;;;6.86;76.20
21594;BME280;10959;51.328;7.322;2023-12-20T10:38:04;98784.69;;;6.86;76.55
21594;BME280;10959;51.328;7.322;2023-12-20T10:40:34;98784.31;;;6.82;76.44
21594;BME280;10959;51.328;7.322;2023-12-20T10:43:02;98790.03;;;6.86;76.36
21594;BME280;10959;51.328;7.322;2023-12-20T10:45:29;98786.66;;;6.90;76.63
21594;BME280;10959;51.328;7.322;2023-12-20T10:47:57;98773.22;;;6.90;76.64
21594;BME280;10959;51.328;7.322;2023-12-20T10:50:27;98778.38;;;6.92;76.85
21594;BME280;10959;51.328;7.322;2023-12-20T10:52:54;98780.00;;;6.93;76.67
21594;BME280;10959;51.328;7.322;2023-12-20T10:55:21;98784.22;;;6.89;76.90
21594;BME280;10959;51.328;7.322;2023-12-20T10:57:52;98770.97;;;6.76;76.86
21594;BME280;10959;51.328;7.322;2023-12-20T11:00:22;98776.91;;;6.78;77.26
21594;BME280;10959;51.328;7.322;2023-12-20T11:02:50;98776.53;;;6.74;77.00
21594;BME280;10959;51.328;7.322;2023-12-20T11:05:28;98773.66;;;6.76;77.03
21594;BME280;10959;51.328;7.322;2023-12-20T11:08:00;98763.84;;;6.81;76.96
21594;BME280;10959;51.328;7.322;2023-12-20T11:10:31;98772.03;;;6.86;76.96
21594;BME280;10959;51.328;7.322;2023-12-20T11:13:07;98781.63;;;6.82;76.30
21594;BME280;10959;51.328;7.322;2023-12-20T11:15:36;98784.38;;;6.76;76.78
21594;BME280;10959;51.328;7.322;2023-12-20T11:18:04;98779.03;;;6.76;76.82
21594;BME280;10959;51.328;7.322;2023-12-20T11:20:36;98782.28;;;6.78;76.88
21594;BME280;10959;51.328;7.322;2023-12-20T11:23:03;98780.22;;;6.80;76.88
21594;BME280;10959;51.328;7.322;2023-12-20T11:25:30;98776.78;;;6.73;77.10
21594;BME280;10959;51.328;7.322;2023-12-20T11:28:11;98770.91;;;6.64;77.21
21594;BME280;10959;51.328;7.322;2023-12-20T11:30:42;98767.91;;;6.72;77.09
21594;BME280;10959;51.328;7.322;2023-12-20T11:33:08;98764.09;;;6.80;77.23
21594;BME280;10959;51.328;7.322;2023-12-20T11:35:35;98756.97;;;6.85;77.15
21594;BME280;10959;51.328;7.322;2023-12-20T11:38:02;98758.13;;;6.89;76.83
21594;BME280;10959;51.328;7.322;2023-12-20T11:40:33;98753.56;;;6.90;77.08
21594;BME280;10959;51.328;7.322;2023-12-20T11:43:01;98747.38;;;6.89;77.03
21594;BME280;10959;51.328;7.322;2023-12-20T11:45:29;98746.47;;;6.95;77.17
21594;BME280;10959;51.328;7.322;2023-12-20T11:47:56;98761.19;;;6.93;76.95
21594;BME280;10959;51.328;7.322;2023-12-20T11:50:24;98767.63;;;6.92;77.26
21594;BME280;10959;51.328;7.322;2023-12-20T11:52:52;98769.25;;;6.93;77.39
21594;BME280;10959;51.328;7.322;2023-12-20T11:55:19;98748.28;;;6.83;77.39
21594;BME280;10959;51.328;7.322;2023-12-20T11:57:46;98752.63;;;6.84;77.52
21594;BME280;10959;51.328;7.322;2023-12-20T12:00:14;98739.28;;;6.78;77.48
21594;BME280;10959;51.328;7.322;2023-12-20T12:02:42;98747.63;;;6.88;77.58
21594;BME280;10959;51.328;7.322;2023-12-20T12:05:09;98734.91;;;6.95;77.45
21594;BME280;10959;51.328;7.322;2023-12-20T12:07:35;98736.06;;;6.99;77.26
21594;BME280;10959;51.328;7.322;2023-12-20T12:10:03;98731.63;;;7.04;77.28
21594;BME280;10959;51.328;7.322;2023-12-20T12:12:29;98730.22;;;7.02;77.44
21594;BME280;10959;51.328;7.322;2023-12-20T12:14:57;98729.06;;;6.98;77.47
21594;BME280;10959;51.328;7.322;2023-12-20T12:17:24;98732.34;;;7.00;77.60
21594;BME280;10959;51.328;7.322;2023-12-20T12:20:01;98724.72;;;6.97;77.59
21594;BME280;10959;51.328;7.322;2023-12-20T12:22:28;98722.06;;;7.08;77.29
21594;BME280;10959;51.328;7.322;2023-12-20T12:24:59;98722.31;;;7.07;77.24
21594;BME280;10959;51.328;7.322;2023-12-20T12:27:25;98723.81;;;7.14;77.46
21594;BME280;10959;51.328;7.322;2023-12-20T12:30:02;98714.34;;;7.12;77.26
21594;BME280;10959;51.328;7.322;2023-12-20T12:32:29;98717.16;;;7.05;77.40
21594;BME280;10959;51.328;7.322;2023-12-20T12:34:57;98706.84;;;7.02;77.39
21594;BME280;10959;51.328;7.322;2023-12-20T12:37:24;98701.25;;;7.04;77.65
21594;BME280;10959;51.328;7.322;2023-12-20T12:39:53;98710.94;;;7.05;77.93
21594;BME280;10959;51.328;7.322;2023-12-20T12:42:19;98705.00;;;7.03;77.76
21594;BME280;10959;51.328;7.322;2023-12-20T12:44:47;98707.44;;;7.04;77.86
21594;BME280;10959;51.328;7.322;2023-12-20T12:47:13;98706.63;;;7.04;77.83
21594;BME280;10959;51.328;7.322;2023-12-20T12:49:41;98708.88;;;7.07;77.73
21594;BME280;10959;51.328;7.322;2023-12-20T12:52:09;98714.81;;;7.09;77.68
21594;BME280;10959;51.328;7.322;2023-12-20T12:54:35;98702.41;;;7.08;77.83
21594;BME280;10959;51.328;7.322;2023-12-20T12:57:03;98691.56;;;7.03;77.67
21594;BME280;10959;51.328;7.322;2023-12-20T12:59:30;98688.88;;;7.03;77.75
21594;BME280;10959;51.328;7.322;2023-12-20T13:01:56;98695.41;;;7.07;77.80
21594;BME280;10959;51.328;7.322;2023-12-20T13:04:23;98706.75;;;7.09;77.88
21594;BME280;10959;51.328;7.322;2023-12-20T13:06:50;98691.91;;;7.06;77.74
21594;BME280;10959;51.328;7.322;2023-12-20T13:09:18;98690.50;;;7.04;77.98
21594;BME280;10959;51.328;7.322;2023-12-20T13:11:45;98685.91;;;6.93;77.93
21594;BME280;10959;51.328;7.322;2023-12-20T13:14:11;98679.50;;;6.94;78.50